createdAt,value
2022-08-30T00:00:45.810Z,97919.50
2022-08-30T00:04:49.929Z,97924.38
2022-08-30T00:08:54.299Z,97926.81
2022-08-30T00:12:58.677Z,97918.66
2022-08-30T00:17:03.573Z,97925.34
2022-08-30T00:21:08.303Z,97925.94
2022-08-30T00:25:12.531Z,97926.50
2022-08-30T00:29:16.191Z,97927.94
2022-08-30T00:33:21.204Z,97924.28
2022-08-30T00:37:24.742Z,97928.31
2022-08-30T00:41:27.887Z,97926.06
2022-08-30T00:45:34.732Z,97924.47
2022-08-30T00:49:43.472Z,97920.19
2022-08-30T00:53:50.129Z,97926.47
2022-08-30T00:57:57.813Z,97918.13
2022-08-30T01:02:02.467Z,97923.81
2022-08-30T01:06:08.667Z,97919.34
2022-08-30T01:10:15.169Z,97914.06
2022-08-30T01:14:19.348Z,97921.19
2022-08-30T01:18:24.588Z,97921.00
2022-08-30T01:22:37.992Z,97916.50
2022-08-30T01:26:42.804Z,97908.00
2022-08-30T01:30:46.607Z,97916.91
2022-08-30T01:34:50.154Z,97912.66
2022-08-30T01:38:55.917Z,97916.31
2022-08-30T01:43:00.913Z,97917.69
2022-08-30T01:47:04.521Z,97922.56
2022-08-30T01:51:07.897Z,97916.25
2022-08-30T01:55:12.590Z,97921.50
2022-08-30T01:59:17.534Z,97915.00
2022-08-30T02:03:21.403Z,97917.81
2022-08-30T02:07:26.079Z,97916.22
2022-08-30T02:11:29.613Z,97918.84
2022-08-30T02:15:41.524Z,97908.69
2022-08-30T02:19:45.708Z,97911.53
2022-08-30T02:23:49.267Z,97911.72
2022-08-30T02:27:52.787Z,97904.97
2022-08-30T02:31:57.895Z,97909.44
2022-08-30T02:36:01.391Z,97908.81
2022-08-30T02:40:06.904Z,97915.06
2022-08-30T02:44:11.360Z,97908.16
2022-08-30T02:48:16.704Z,97913.81
2022-08-30T02:52:20.476Z,97910.94
2022-08-30T02:56:31.665Z,97920.84
2022-08-30T03:00:35.632Z,97918.38
2022-08-30T03:04:40.904Z,97926.88
2022-08-30T03:08:44.095Z,97920.19
2022-08-30T03:12:48.462Z,97918.75
2022-08-30T03:16:52.148Z,97922.78
2022-08-30T03:20:57.207Z,97917.28
2022-08-30T03:25:01.847Z,97917.25
2022-08-30T03:29:05.632Z,97909.28
2022-08-30T03:33:09.210Z,97916.75
2022-08-30T03:37:16.124Z,97926.84
2022-08-30T03:41:19.631Z,97916.06
2022-08-30T03:45:23.285Z,97918.28
2022-08-30T03:49:26.759Z,97913.34
2022-08-30T03:53:31.790Z,97925.50
2022-08-30T03:57:36.684Z,97927.25
2022-08-30T04:01:40.545Z,97925.00
2022-08-30T04:05:45.025Z,97926.38
2022-08-30T04:09:50.095Z,97932.22
2022-08-30T04:13:53.620Z,97929.13
2022-08-30T04:17:56.888Z,97930.50
2022-08-30T04:22:00.541Z,97942.03
2022-08-30T04:26:05.636Z,97931.91
2022-08-30T04:30:09.657Z,97946.06
2022-08-30T04:34:12.943Z,97932.59
2022-08-30T04:38:17.243Z,97944.38
2022-08-30T04:42:21.658Z,97953.13
2022-08-30T04:46:25.584Z,97953.44
2022-08-30T04:50:29.249Z,97963.44
2022-08-30T04:54:33.526Z,97957.00
2022-08-30T04:58:38.242Z,97958.22
2022-08-30T05:02:43.161Z,97968.19
2022-08-30T05:06:46.825Z,97966.19
2022-08-30T05:10:52.911Z,97971.97
2022-08-30T05:14:58.421Z,97984.78
2022-08-30T05:19:01.717Z,97990.72
2022-08-30T05:23:06.017Z,97999.31
2022-08-30T05:27:09.499Z,98000.63
2022-08-30T05:31:21.769Z,97998.47
2022-08-30T05:35:25.976Z,98008.47
2022-08-30T05:39:51.260Z,98007.78
2022-08-30T05:43:54.418Z,98018.22
2022-08-30T05:47:59.503Z,98025.41
2022-08-30T05:52:02.653Z,98028.72
2022-08-30T05:56:09.228Z,98023.97
2022-08-30T06:00:15.766Z,98032.59
2022-08-30T06:04:20.909Z,98032.28
2022-08-30T06:08:24.115Z,98031.13
2022-08-30T06:12:28.579Z,98032.78
2022-08-30T06:16:33.035Z,98027.53
2022-08-30T06:20:41.257Z,98038.56
2022-08-30T06:25:00.131Z,98037.72
2022-08-30T06:29:03.318Z,98032.44
2022-08-30T06:33:07.040Z,98027.19
2022-08-30T06:37:11.581Z,98029.16
2022-08-30T06:41:19.156Z,98036.84
2022-08-30T06:45:22.455Z,98045.41
2022-08-30T06:49:28.223Z,98033.97
2022-08-30T06:53:33.699Z,98046.13
2022-08-30T06:57:37.086Z,98044.25
2022-08-30T07:01:44.396Z,98040.50
2022-08-30T07:05:50.227Z,98036.78
2022-08-30T07:09:55.353Z,98040.88
2022-08-30T07:13:58.967Z,98030.84
2022-08-30T07:18:19.877Z,98042.66
2022-08-30T07:22:23.012Z,98041.63
2022-08-30T07:26:30.601Z,98043.91
2022-08-30T07:30:34.799Z,98035.88
2022-08-30T07:34:39.641Z,98044.59
2022-08-30T07:38:42.902Z,98043.22
2022-08-30T07:42:48.090Z,98039.53
2022-08-30T07:46:51.407Z,98037.00
2022-08-30T07:50:58.960Z,98032.88
2022-08-30T07:55:04.908Z,98030.50
2022-08-30T07:59:09.915Z,98031.41
2022-08-30T08:03:13.063Z,98040.38
2022-08-30T08:07:17.649Z,98035.75
2022-08-30T08:11:25.062Z,98032.50
2022-08-30T08:15:30.759Z,98035.88
2022-08-30T08:19:34.527Z,98033.59
2022-08-30T08:23:37.626Z,98028.47
2022-08-30T08:27:41.361Z,98025.94
2022-08-30T08:31:47.808Z,98020.91
2022-08-30T08:35:51.085Z,98017.72
2022-08-30T08:39:54.646Z,98012.88
2022-08-30T08:43:58.204Z,98006.97
2022-08-30T08:48:06.870Z,98008.50
2022-08-30T08:52:35.784Z,98019.47
2022-08-30T08:56:39.687Z,98008.13
2022-08-30T09:00:43.412Z,98014.22
2022-08-30T09:04:51.813Z,98001.50
2022-08-30T09:08:55.454Z,97995.56
2022-08-30T09:13:00.151Z,97992.56
2022-08-30T09:17:07.989Z,97989.03
2022-08-30T09:21:14.210Z,97978.53
2022-08-30T09:25:24.504Z,97978.19
2022-08-30T09:29:27.676Z,97963.88
2022-08-30T09:33:31.993Z,97962.63
2022-08-30T09:37:41.062Z,97967.00
2022-08-30T09:41:47.223Z,97961.13
2022-08-30T09:46:09.312Z,97953.09
2022-08-30T09:50:16.201Z,97956.69
2022-08-30T09:54:31.006Z,97950.06
2022-08-30T09:58:47.436Z,97949.34
2022-08-30T10:03:05.404Z,97938.53
2022-08-30T10:07:15.419Z,97941.72
2022-08-30T10:11:26.353Z,97927.63
2022-08-30T10:15:34.592Z,97930.41
2022-08-30T10:19:54.906Z,97922.63
2022-08-30T10:24:04.665Z,97918.25
2022-08-30T10:28:16.501Z,97919.94
2022-08-30T10:32:30.262Z,97920.22
2022-08-30T10:36:42.028Z,97907.31
2022-08-30T10:41:09.137Z,97909.22
2022-08-30T10:45:17.709Z,97903.44
2022-08-30T10:49:24.385Z,97900.88
2022-08-30T10:53:33.938Z,97897.19
2022-08-30T10:57:37.240Z,97894.47
2022-08-30T11:02:07.984Z,97892.78
2022-08-30T11:06:20.129Z,97891.38
2022-08-30T11:10:28.483Z,97897.50
2022-08-30T11:14:31.995Z,97895.09
2022-08-30T11:18:51.036Z,97888.19
2022-08-30T11:23:32.541Z,97882.47
2022-08-30T11:27:48.705Z,97878.84
2022-08-30T11:31:52.605Z,97870.63
2022-08-30T11:35:58.259Z,97866.22
2022-08-30T11:40:04.013Z,97865.13
2022-08-30T11:44:16.651Z,97861.19
2022-08-30T11:48:54.048Z,97861.69
2022-08-30T11:53:08.137Z,97858.97
2022-08-30T11:57:24.146Z,97852.50
2022-08-30T12:01:54.982Z,97848.75
2022-08-30T12:06:03.461Z,97853.09
2022-08-30T12:10:22.903Z,97851.88
2022-08-30T12:14:49.206Z,97842.13
2022-08-30T12:18:56.072Z,97834.63
2022-08-30T12:23:14.835Z,97840.53
2022-08-30T12:27:27.304Z,97833.34
2022-08-30T12:31:42.249Z,97833.09
2022-08-30T12:35:46.231Z,97819.63
2022-08-30T12:39:53.801Z,97824.72
2022-08-30T12:43:59.219Z,97820.03
2022-08-30T12:48:06.405Z,97809.47
2022-08-30T12:52:23.943Z,97798.66
2022-08-30T12:57:19.083Z,97799.47
2022-08-30T13:01:32.482Z,97793.75
2022-08-30T13:05:50.491Z,97796.88
2022-08-30T13:10:07.253Z,97788.28
2022-08-30T13:14:33.057Z,97783.38
2022-08-30T13:18:39.018Z,97779.69
2022-08-30T13:22:44.942Z,97777.09
2022-08-30T13:26:49.077Z,97773.78
2022-08-30T13:30:52.216Z,97778.44
2022-08-30T13:34:57.456Z,97770.94
2022-08-30T13:39:02.382Z,97757.97
2022-08-30T13:43:06.037Z,97761.38
2022-08-30T13:51:36.887Z,97750.41
2022-08-30T13:55:43.155Z,97743.41
2022-08-30T13:59:50.904Z,97746.16
2022-08-30T14:13:02.616Z,97723.22
2022-08-30T14:17:12.999Z,97724.75
2022-08-30T14:21:18.253Z,97713.38
2022-08-30T14:25:31.300Z,97713.69
2022-08-30T14:29:35.864Z,97713.81
2022-08-30T14:33:40.346Z,97712.91
2022-08-30T14:37:45.709Z,97705.44
2022-08-30T14:41:58.370Z,97705.19
2022-08-30T14:46:11.054Z,97697.72
2022-08-30T14:50:15.345Z,97700.13
2022-08-30T14:54:20.830Z,97703.13
2022-08-30T14:58:29.819Z,97688.50
2022-08-30T15:02:35.024Z,97690.72
2022-08-30T15:06:40.273Z,97682.91
2022-08-30T15:10:46.002Z,97693.88
2022-08-30T15:14:51.513Z,97686.22
2022-08-30T15:18:56.472Z,97686.47
2022-08-30T15:23:02.784Z,97677.47
2022-08-30T15:27:10.311Z,97673.75
2022-08-30T15:31:16.562Z,97665.44
2022-08-30T15:35:20.294Z,97681.34
2022-08-30T15:39:26.820Z,97674.50
2022-08-30T15:43:30.920Z,97669.00
2022-08-30T15:47:38.575Z,97667.06
2022-08-30T15:51:45.914Z,97674.09
2022-08-30T15:55:49.933Z,97658.84
2022-08-30T15:59:56.316Z,97658.28
2022-08-30T16:04:03.410Z,97663.13
2022-08-30T16:08:10.668Z,97652.66
2022-08-30T16:12:22.463Z,97656.59
2022-08-30T16:16:28.085Z,97651.16
2022-08-30T16:20:33.930Z,97639.41
2022-08-30T16:24:39.133Z,97644.22
2022-08-30T16:28:44.924Z,97638.78
2022-08-30T16:32:49.696Z,97631.25
2022-08-30T16:36:56.599Z,97633.25
2022-08-30T16:41:00.885Z,97638.53
2022-08-30T16:45:10.756Z,97628.97
2022-08-30T16:49:16.145Z,97624.69
2022-08-30T16:53:23.378Z,97624.94
2022-08-30T16:57:32.166Z,97614.88
2022-08-30T17:01:40.810Z,97602.19
2022-08-30T17:05:46.621Z,97606.91
2022-08-30T17:09:51.472Z,97626.03
2022-08-30T17:13:57.539Z,97602.56
2022-08-30T17:18:01.544Z,97614.88
2022-08-30T17:26:40.827Z,97626.06
2022-08-30T17:30:45.217Z,97632.72
2022-08-30T17:34:49.073Z,97633.44
2022-08-30T17:38:53.764Z,97645.63
2022-08-30T17:43:03.780Z,97646.00
2022-08-30T17:47:08.714Z,97659.72
2022-08-30T17:51:13.039Z,97658.72
2022-08-30T17:55:17.678Z,97654.22
2022-08-30T17:59:25.719Z,97671.06
2022-08-30T18:03:30.027Z,97685.44
2022-08-30T18:07:37.348Z,97677.59
2022-08-30T18:11:42.862Z,97678.88
2022-08-30T18:15:50.702Z,97693.84
2022-08-30T18:19:54.218Z,97683.13
2022-08-30T18:24:01.005Z,97687.19
2022-08-30T18:28:08.675Z,97695.53
2022-08-30T18:32:18.964Z,97698.63
2022-08-30T18:36:25.575Z,97701.34
2022-08-30T18:40:29.842Z,97708.94
2022-08-30T18:44:37.784Z,97712.22
2022-08-30T18:48:44.239Z,97709.13
2022-08-30T18:52:49.177Z,97715.38
2022-08-30T18:56:54.500Z,97706.28
2022-08-30T19:00:58.924Z,97706.88
2022-08-30T19:05:11.598Z,97716.84
2022-08-30T19:09:18.686Z,97719.06
2022-08-30T19:13:23.952Z,97723.06
2022-08-30T19:17:28.640Z,97733.13
2022-08-30T19:21:36.281Z,97716.16
2022-08-30T19:25:56.823Z,97717.66
2022-08-30T19:30:03.020Z,97728.41
2022-08-30T19:34:08.303Z,97718.03
2022-08-30T19:38:14.186Z,97722.66
2022-08-30T19:42:19.806Z,97724.47
2022-08-30T19:46:23.135Z,97719.75
2022-08-30T19:50:27.085Z,97717.66
2022-08-30T19:54:32.224Z,97722.25
2022-08-30T19:58:38.402Z,97724.44
2022-08-30T20:02:43.660Z,97722.31
2022-08-30T20:06:49.821Z,97720.91
2022-08-30T20:11:00.032Z,97730.00
2022-08-30T20:15:09.986Z,97740.00
2022-08-30T20:19:18.564Z,97736.44
2022-08-30T20:23:26.296Z,97737.00
2022-08-30T20:27:31.730Z,97735.66
2022-08-30T20:31:36.907Z,97737.59
2022-08-30T20:35:48.358Z,97725.44
2022-08-30T20:39:52.738Z,97736.03
2022-08-30T20:43:58.514Z,97733.50
2022-08-30T20:48:02.212Z,97737.47
2022-08-30T20:52:07.012Z,97751.78
2022-08-30T20:56:15.081Z,97743.72
2022-08-30T21:00:21.129Z,97737.00
2022-08-30T21:04:25.687Z,97735.03
2022-08-30T21:08:30.362Z,97739.69
2022-08-30T21:12:34.128Z,97729.53
2022-08-30T21:16:40.099Z,97726.09
2022-08-30T21:20:43.779Z,97726.78
2022-08-30T21:24:47.355Z,97724.78
2022-08-30T21:28:52.002Z,97717.09
2022-08-30T21:32:59.950Z,97726.94
2022-08-30T21:37:04.129Z,97724.59
2022-08-30T21:41:07.314Z,97723.03
2022-08-30T21:45:13.176Z,97729.19
2022-08-30T21:49:20.636Z,97728.00
2022-08-30T21:53:24.067Z,97725.22
2022-08-30T21:57:28.144Z,97729.28
2022-08-30T22:01:36.408Z,97721.19
2022-08-30T22:05:42.713Z,97726.31
2022-08-30T22:09:46.298Z,97721.28
2022-08-30T22:13:51.649Z,97718.28
2022-08-30T22:17:56.477Z,97718.78
2022-08-30T22:22:01.775Z,97721.44
2022-08-30T22:26:07.102Z,97719.06
2022-08-30T22:30:11.302Z,97712.00
2022-08-30T22:34:14.532Z,97720.75
2022-08-30T22:38:19.779Z,97708.59
2022-08-30T22:42:23.587Z,97707.03
2022-08-30T22:46:34.282Z,97711.53
2022-08-30T22:50:38.655Z,97703.84
2022-08-30T22:54:43.566Z,97708.34
2022-08-30T22:58:48.149Z,97710.41
2022-08-30T23:02:54.773Z,97703.53
2022-08-30T23:06:57.900Z,97694.22
2022-08-30T23:11:03.126Z,97697.50
2022-08-30T23:15:08.597Z,97699.94
2022-08-30T23:19:11.758Z,97693.25
2022-08-30T23:23:32.867Z,97691.63
2022-08-30T23:27:55.159Z,97689.78
2022-08-30T23:32:16.255Z,97685.75
2022-08-30T23:36:37.530Z,97689.41
2022-08-30T23:40:58.960Z,97681.91
2022-08-30T23:45:20.912Z,97682.91
2022-08-30T23:49:42.058Z,97679.69
2022-08-30T23:54:02.995Z,97680.47
2022-08-30T23:58:24.272Z,97691.03
